sensor_id;sensor_type;location;lat;lon;timestamp;P1;durP1;ratioP1;P2;durP2;ratioP2
58516;SDS011;44308;50.810;0.284;2022-07-01T00:02:20;8.45;;;2.40;;
58516;SDS011;44308;50.810;0.284;2022-07-01T00:04:46;14.73;;;3.22;;
58516;SDS011;44308;50.810;0.284;2022-07-01T00:07:12;5.82;;;2.35;;
58516;SDS011;44308;50.810;0.284;2022-07-01T00:09:38;12.35;;;2.75;;
58516;SDS011;44308;50.810;0.284;2022-07-01T00:12:04;10.90;;;2.85;;
58516;SDS011;44308;50.810;0.284;2022-07-01T00:14:31;17.35;;;3.88;;
58516;SDS011;44308;50.810;0.284;2022-07-01T00:16:57;15.13;;;2.67;;
58516;SDS011;44308;50.810;0.284;2022-07-01T00:19:23;6.93;;;2.35;;
58516;SDS011;44308;50.810;0.284;2022-07-01T00:21:52;6.50;;;2.47;;
58516;SDS011;44308;50.810;0.284;2022-07-01T00:24:18;11.43;;;3.45;;
58516;SDS011;44308;50.810;0.284;2022-07-01T00:26:44;8.93;;;2.92;;
58516;SDS011;44308;50.810;0.284;2022-07-01T00:29:10;10.77;;;2.33;;
58516;SDS011;44308;50.810;0.284;2022-07-01T00:31:36;11.40;;;2.85;;
58516;SDS011;44308;50.810;0.284;2022-07-01T00:34:02;13.70;;;2.72;;
58516;SDS011;44308;50.810;0.284;2022-07-01T00:36:28;5.90;;;2.35;;
58516;SDS011;44308;50.810;0.284;2022-07-01T00:38:54;6.78;;;2.78;;
58516;SDS011;44308;50.810;0.284;2022-07-01T00:41:20;7.13;;;2.78;;
58516;SDS011;44308;50.810;0.284;2022-07-01T00:43:45;9.23;;;2.55;;
58516;SDS011;44308;50.810;0.284;2022-07-01T00:46:11;5.53;;;2.45;;
58516;SDS011;44308;50.810;0.284;2022-07-01T00:48:37;11.00;;;3.10;;
58516;SDS011;44308;50.810;0.284;2022-07-01T00:51:04;7.82;;;2.35;;
58516;SDS011;44308;50.810;0.284;2022-07-01T00:53:29;11.82;;;2.33;;
58516;SDS011;44308;50.810;0.284;2022-07-01T00:55:56;11.52;;;2.40;;
58516;SDS011;44308;50.810;0.284;2022-07-01T00:58:22;16.27;;;3.00;;
58516;SDS011;44308;50.810;0.284;2022-07-01T01:00:50;12.55;;;2.60;;
58516;SDS011;44308;50.810;0.284;2022-07-01T01:03:15;12.65;;;2.50;;
58516;SDS011;44308;50.810;0.284;2022-07-01T01:05:41;11.90;;;2.63;;
58516;SDS011;44308;50.810;0.284;2022-07-01T01:08:08;12.73;;;2.85;;
58516;SDS011;44308;50.810;0.284;2022-07-01T01:10:37;6.97;;;2.72;;
58516;SDS011;44308;50.810;0.284;2022-07-01T01:13:03;11.55;;;2.17;;
58516;SDS011;44308;50.810;0.284;2022-07-01T01:15:29;8.45;;;2.47;;
58516;SDS011;44308;50.810;0.284;2022-07-01T01:17:55;15.10;;;3.03;;
58516;SDS011;44308;50.810;0.284;2022-07-01T01:20:21;11.30;;;2.97;;
58516;SDS011;44308;50.810;0.284;2022-07-01T01:22:48;10.32;;;2.67;;
58516;SDS011;44308;50.810;0.284;2022-07-01T01:25:14;8.65;;;3.00;;
58516;SDS011;44308;50.810;0.284;2022-07-01T01:27:40;6.75;;;2.50;;
58516;SDS011;44308;50.810;0.284;2022-07-01T01:30:07;7.97;;;2.78;;
58516;SDS011;44308;50.810;0.284;2022-07-01T01:32:35;32.80;;;3.30;;
58516;SDS011;44308;50.810;0.284;2022-07-01T01:35:01;8.43;;;2.63;;
58516;SDS011;44308;50.810;0.284;2022-07-01T01:37:27;12.75;;;3.15;;
58516;SDS011;44308;50.810;0.284;2022-07-01T01:39:54;12.95;;;2.85;;
58516;SDS011;44308;50.810;0.284;2022-07-01T01:42:20;15.45;;;3.22;;
58516;SDS011;44308;50.810;0.284;2022-07-01T01:44:46;11.48;;;2.90;;
58516;SDS011;44308;50.810;0.284;2022-07-01T01:47:12;9.43;;;2.50;;
58516;SDS011;44308;50.810;0.284;2022-07-01T01:49:38;10.70;;;3.05;;
58516;SDS011;44308;50.810;0.284;2022-07-01T01:52:04;16.88;;;3.53;;
58516;SDS011;44308;50.810;0.284;2022-07-01T01:54:31;11.20;;;2.55;;
58516;SDS011;44308;50.810;0.284;2022-07-01T01:56:57;7.45;;;3.05;;
58516;SDS011;44308;50.810;0.284;2022-07-01T01:59:23;13.02;;;3.28;;
58516;SDS011;44308;50.810;0.284;2022-07-01T02:01:49;11.48;;;3.63;;
58516;SDS011;44308;50.810;0.284;2022-07-01T02:04:14;18.67;;;3.35;;
58516;SDS011;44308;50.810;0.284;2022-07-01T02:06:41;12.93;;;3.40;;
58516;SDS011;44308;50.810;0.284;2022-07-01T02:09:07;8.00;;;3.15;;
58516;SDS011;44308;50.810;0.284;2022-07-01T02:11:34;8.45;;;3.22;;
58516;SDS011;44308;50.810;0.284;2022-07-01T02:14:00;13.93;;;3.78;;
58516;SDS011;44308;50.810;0.284;2022-07-01T02:16:25;12.77;;;3.38;;
58516;SDS011;44308;50.810;0.284;2022-07-01T02:18:52;14.48;;;3.00;;
58516;SDS011;44308;50.810;0.284;2022-07-01T02:21:18;13.85;;;3.00;;
58516;SDS011;44308;50.810;0.284;2022-07-01T02:23:43;26.45;;;2.60;;
58516;SDS011;44308;50.810;0.284;2022-07-01T02:26:09;10.15;;;2.30;;
58516;SDS011;44308;50.810;0.284;2022-07-01T02:28:35;14.40;;;2.38;;
58516;SDS011;44308;50.810;0.284;2022-07-01T02:31:01;9.48;;;1.92;;
58516;SDS011;44308;50.810;0.284;2022-07-01T02:33:27;7.97;;;2.20;;
58516;SDS011;44308;50.810;0.284;2022-07-01T02:35:54;4.72;;;1.65;;
58516;SDS011;44308;50.810;0.284;2022-07-01T02:38:19;3.10;;;1.15;;
58516;SDS011;44308;50.810;0.284;2022-07-01T02:40:45;4.43;;;1.10;;
58516;SDS011;44308;50.810;0.284;2022-07-01T02:43:11;3.88;;;0.77;;
58516;SDS011;44308;50.810;0.284;2022-07-01T02:45:37;3.08;;;1.10;;
58516;SDS011;44308;50.810;0.284;2022-07-01T02:48:05;3.88;;;1.25;;
58516;SDS011;44308;50.810;0.284;2022-07-01T02:50:30;3.47;;;1.17;;
58516;SDS011;44308;50.810;0.284;2022-07-01T02:52:56;12.73;;;1.48;;
58516;SDS011;44308;50.810;0.284;2022-07-01T02:55:22;2.22;;;1.20;;
58516;SDS011;44308;50.810;0.284;2022-07-01T02:57:48;7.55;;;1.63;;
58516;SDS011;44308;50.810;0.284;2022-07-01T03:00:17;8.27;;;2.03;;
58516;SDS011;44308;50.810;0.284;2022-07-01T03:02:45;4.13;;;1.63;;
58516;SDS011;44308;50.810;0.284;2022-07-01T03:05:11;5.05;;;1.65;;
58516;SDS011;44308;50.810;0.284;2022-07-01T03:07:37;7.32;;;2.20;;
58516;SDS011;44308;50.810;0.284;2022-07-01T03:10:04;7.68;;;1.60;;
58516;SDS011;44308;50.810;0.284;2022-07-01T03:12:30;5.35;;;2.20;;
58516;SDS011;44308;50.810;0.284;2022-07-01T03:15:10;8.88;;;2.13;;
58516;SDS011;44308;50.810;0.284;2022-07-01T03:17:44;7.60;;;1.95;;
58516;SDS011;44308;50.810;0.284;2022-07-01T03:20:12;9.45;;;2.17;;
58516;SDS011;44308;50.810;0.284;2022-07-01T03:22:39;10.77;;;2.55;;
58516;SDS011;44308;50.810;0.284;2022-07-01T03:25:05;7.78;;;2.33;;
58516;SDS011;44308;50.810;0.284;2022-07-01T03:27:32;18.33;;;2.63;;
58516;SDS011;44308;50.810;0.284;2022-07-01T03:29:58;3.42;;;2.08;;
58516;SDS011;44308;50.810;0.284;2022-07-01T03:32:24;16.90;;;2.70;;
58516;SDS011;44308;50.810;0.284;2022-07-01T03:34:51;6.30;;;1.95;;
58516;SDS011;44308;50.810;0.284;2022-07-01T03:37:18;9.13;;;2.55;;
58516;SDS011;44308;50.810;0.284;2022-07-01T03:39:45;17.23;;;3.35;;
58516;SDS011;44308;50.810;0.284;2022-07-01T03:42:11;5.05;;;2.47;;
58516;SDS011;44308;50.810;0.284;2022-07-01T03:44:36;9.48;;;2.92;;
58516;SDS011;44308;50.810;0.284;2022-07-01T03:47:03;7.20;;;2.45;;
58516;SDS011;44308;50.810;0.284;2022-07-01T03:49:33;18.35;;;3.10;;
58516;SDS011;44308;50.810;0.284;2022-07-01T03:51:59;17.75;;;4.13;;
58516;SDS011;44308;50.810;0.284;2022-07-01T03:54:25;11.27;;;3.50;;
58516;SDS011;44308;50.810;0.284;2022-07-01T03:59:31;16.75;;;3.92;;
58516;SDS011;44308;50.810;0.284;2022-07-01T04:02:00;20.23;;;3.72;;
58516;SDS011;44308;50.810;0.284;2022-07-01T04:04:26;11.05;;;3.42;;
58516;SDS011;44308;50.810;0.284;2022-07-01T04:06:53;37.25;;;4.75;;
58516;SDS011;44308;50.810;0.284;2022-07-01T04:09:20;11.75;;;3.05;;
58516;SDS011;44308;50.810;0.284;2022-07-01T04:11:47;11.32;;;3.50;;
58516;SDS011;44308;50.810;0.284;2022-07-01T04:14:14;10.57;;;3.65;;
58516;SDS011;44308;50.810;0.284;2022-07-01T04:16:40;13.43;;;3.58;;
58516;SDS011;44308;50.810;0.284;2022-07-01T04:19:07;7.38;;;3.28;;
58516;SDS011;44308;50.810;0.284;2022-07-01T04:21:33;12.80;;;3.42;;
58516;SDS011;44308;50.810;0.284;2022-07-01T04:24:17;5.93;;;2.70;;
58516;SDS011;44308;50.810;0.284;2022-07-01T04:26:43;8.00;;;3.17;;
58516;SDS011;44308;50.810;0.284;2022-07-01T04:29:09;4.97;;;2.72;;
58516;SDS011;44308;50.810;0.284;2022-07-01T04:31:36;6.57;;;2.80;;
58516;SDS011;44308;50.810;0.284;2022-07-01T04:34:02;6.95;;;3.20;;
58516;SDS011;44308;50.810;0.284;2022-07-01T04:36:32;14.38;;;3.25;;
58516;SDS011;44308;50.810;0.284;2022-07-01T04:38:58;7.72;;;3.45;;
58516;SDS011;44308;50.810;0.284;2022-07-01T04:41:24;8.00;;;3.15;;
58516;SDS011;44308;50.810;0.284;2022-07-01T04:44:09;10.02;;;3.25;;
58516;SDS011;44308;50.810;0.284;2022-07-01T04:46:35;5.43;;;3.22;;
58516;SDS011;44308;50.810;0.284;2022-07-01T04:49:01;6.93;;;3.47;;
58516;SDS011;44308;50.810;0.284;2022-07-01T04:51:27;12.77;;;3.28;;
58516;SDS011;44308;50.810;0.284;2022-07-01T04:53:53;6.93;;;3.42;;
58516;SDS011;44308;50.810;0.284;2022-07-01T04:56:19;8.93;;;3.90;;
58516;SDS011;44308;50.810;0.284;2022-07-01T04:58:46;5.40;;;3.28;;
58516;SDS011;44308;50.810;0.284;2022-07-01T05:01:12;7.28;;;3.53;;
58516;SDS011;44308;50.810;0.284;2022-07-01T05:03:38;9.45;;;3.83;;
58516;SDS011;44308;50.810;0.284;2022-07-01T05:06:04;6.35;;;3.47;;
58516;SDS011;44308;50.810;0.284;2022-07-01T05:08:30;10.45;;;3.55;;
58516;SDS011;44308;50.810;0.284;2022-07-01T05:10:56;8.13;;;3.60;;
58516;SDS011;44308;50.810;0.284;2022-07-01T05:13:22;6.25;;;3.35;;
58516;SDS011;44308;50.810;0.284;2022-07-01T05:15:48;6.13;;;3.13;;
58516;SDS011;44308;50.810;0.284;2022-07-01T05:18:16;10.35;;;3.28;;
58516;SDS011;44308;50.810;0.284;2022-07-01T05:21:00;7.95;;;3.30;;
58516;SDS011;44308;50.810;0.284;2022-07-01T05:23:44;5.00;;;3.08;;
58516;SDS011;44308;50.810;0.284;2022-07-01T05:26:10;9.15;;;3.60;;
58516;SDS011;44308;50.810;0.284;2022-07-01T05:28:41;4.95;;;3.25;;
58516;SDS011;44308;50.810;0.284;2022-07-01T05:31:08;9.82;;;3.58;;
58516;SDS011;44308;50.810;0.284;2022-07-01T05:33:34;6.50;;;3.55;;
58516;SDS011;44308;50.810;0.284;2022-07-01T05:35:59;6.82;;;3.67;;
58516;SDS011;44308;50.810;0.284;2022-07-01T05:38:26;7.97;;;3.85;;
58516;SDS011;44308;50.810;0.284;2022-07-01T05:40:52;6.68;;;3.70;;
58516;SDS011;44308;50.810;0.284;2022-07-01T05:43:19;10.93;;;3.88;;
58516;SDS011;44308;50.810;0.284;2022-07-01T05:45:45;10.00;;;4.45;;
58516;SDS011;44308;50.810;0.284;2022-07-01T05:48:11;8.25;;;3.92;;
58516;SDS011;44308;50.810;0.284;2022-07-01T05:50:39;5.15;;;3.72;;
58516;SDS011;44308;50.810;0.284;2022-07-01T05:53:05;8.73;;;3.10;;
58516;SDS011;44308;50.810;0.284;2022-07-01T05:55:30;11.38;;;3.03;;
58516;SDS011;44308;50.810;0.284;2022-07-01T05:57:57;14.50;;;4.00;;
58516;SDS011;44308;50.810;0.284;2022-07-01T06:00:23;4.95;;;2.78;;
58516;SDS011;44308;50.810;0.284;2022-07-01T06:02:49;6.70;;;2.97;;
58516;SDS011;44308;50.810;0.284;2022-07-01T06:05:15;4.22;;;2.30;;
58516;SDS011;44308;50.810;0.284;2022-07-01T06:07:40;7.75;;;2.70;;
58516;SDS011;44308;50.810;0.284;2022-07-01T06:10:07;2.95;;;2.28;;
58516;SDS011;44308;50.810;0.284;2022-07-01T06:12:35;7.45;;;2.83;;
58516;SDS011;44308;50.810;0.284;2022-07-01T06:15:01;7.38;;;2.63;;
58516;SDS011;44308;50.810;0.284;2022-07-01T06:17:27;3.97;;;2.55;;
58516;SDS011;44308;50.810;0.284;2022-07-01T06:19:53;11.25;;;2.85;;
58516;SDS011;44308;50.810;0.284;2022-07-01T06:22:19;7.22;;;2.42;;
58516;SDS011;44308;50.810;0.284;2022-07-01T06:24:49;6.93;;;2.17;;
58516;SDS011;44308;50.810;0.284;2022-07-01T06:27:14;5.35;;;2.35;;
58516;SDS011;44308;50.810;0.284;2022-07-01T06:29:40;9.50;;;2.40;;
58516;SDS011;44308;50.810;0.284;2022-07-01T06:32:06;8.45;;;2.03;;
58516;SDS011;44308;50.810;0.284;2022-07-01T06:34:35;4.18;;;2.22;;
58516;SDS011;44308;50.810;0.284;2022-07-01T06:37:01;7.43;;;2.08;;
58516;SDS011;44308;50.810;0.284;2022-07-01T06:39:28;5.55;;;1.90;;
58516;SDS011;44308;50.810;0.284;2022-07-01T06:41:55;4.93;;;1.67;;
58516;SDS011;44308;50.810;0.284;2022-07-01T06:44:21;5.70;;;1.92;;
58516;SDS011;44308;50.810;0.284;2022-07-01T06:46:47;3.80;;;1.52;;
58516;SDS011;44308;50.810;0.284;2022-07-01T06:49:13;5.25;;;1.50;;
58516;SDS011;44308;50.810;0.284;2022-07-01T06:51:39;7.25;;;1.67;;
58516;SDS011;44308;50.810;0.284;2022-07-01T06:54:07;4.18;;;1.65;;
58516;SDS011;44308;50.810;0.284;2022-07-01T06:56:33;5.53;;;1.95;;
58516;SDS011;44308;50.810;0.284;2022-07-01T06:58:59;17.05;;;2.00;;
58516;SDS011;44308;50.810;0.284;2022-07-01T07:01:26;6.93;;;1.83;;
58516;SDS011;44308;50.810;0.284;2022-07-01T07:03:52;3.22;;;1.40;;
58516;SDS011;44308;50.810;0.284;2022-07-01T07:06:18;3.65;;;1.60;;
58516;SDS011;44308;50.810;0.284;2022-07-01T07:08:44;5.85;;;1.70;;
58516;SDS011;44308;50.810;0.284;2022-07-01T07:11:10;5.85;;;1.80;;
58516;SDS011;44308;50.810;0.284;2022-07-01T07:13:36;6.40;;;1.80;;
58516;SDS011;44308;50.810;0.284;2022-07-01T07:16:02;4.70;;;1.52;;
58516;SDS011;44308;50.810;0.284;2022-07-01T07:18:28;6.88;;;1.58;;
58516;SDS011;44308;50.810;0.284;2022-07-01T07:20:53;6.32;;;1.50;;
58516;SDS011;44308;50.810;0.284;2022-07-01T07:23:19;5.47;;;1.90;;
58516;SDS011;44308;50.810;0.284;2022-07-01T07:25:45;4.22;;;1.92;;
58516;SDS011;44308;50.810;0.284;2022-07-01T07:28:11;3.55;;;1.20;;
58516;SDS011;44308;50.810;0.284;2022-07-01T07:30:37;6.22;;;1.67;;
58516;SDS011;44308;50.810;0.284;2022-07-01T07:33:03;3.38;;;1.92;;
58516;SDS011;44308;50.810;0.284;2022-07-01T07:35:29;3.38;;;1.50;;
58516;SDS011;44308;50.810;0.284;2022-07-01T07:37:54;3.40;;;1.50;;
58516;SDS011;44308;50.810;0.284;2022-07-01T07:40:20;2.42;;;1.30;;
58516;SDS011;44308;50.810;0.284;2022-07-01T07:42:46;5.07;;;1.50;;
58516;SDS011;44308;50.810;0.284;2022-07-01T07:45:13;4.03;;;1.75;;
58516;SDS011;44308;50.810;0.284;2022-07-01T07:47:43;4.15;;;2.25;;
58516;SDS011;44308;50.810;0.284;2022-07-01T07:50:10;2.67;;;1.40;;
58516;SDS011;44308;50.810;0.284;2022-07-01T07:52:37;4.07;;;1.67;;
58516;SDS011;44308;50.810;0.284;2022-07-01T07:55:04;10.60;;;1.67;;
58516;SDS011;44308;50.810;0.284;2022-07-01T07:57:31;5.15;;;2.00;;
58516;SDS011;44308;50.810;0.284;2022-07-01T07:59:57;4.43;;;1.95;;
58516;SDS011;44308;50.810;0.284;2022-07-01T08:02:23;5.32;;;1.75;;
58516;SDS011;44308;50.810;0.284;2022-07-01T08:04:49;8.07;;;1.80;;
58516;SDS011;44308;50.810;0.284;2022-07-01T08:07:15;3.63;;;1.25;;
58516;SDS011;44308;50.810;0.284;2022-07-01T08:09:41;6.13;;;1.77;;
58516;SDS011;44308;50.810;0.284;2022-07-01T08:12:11;2.35;;;1.33;;
58516;SDS011;44308;50.810;0.284;2022-07-01T08:14:37;4.32;;;1.67;;
58516;SDS011;44308;50.810;0.284;2022-07-01T08:17:03;4.60;;;1.83;;
58516;SDS011;44308;50.810;0.284;2022-07-01T08:19:29;5.85;;;1.55;;
58516;SDS011;44308;50.810;0.284;2022-07-01T08:21:55;5.35;;;2.03;;
58516;SDS011;44308;50.810;0.284;2022-07-01T08:24:21;3.47;;;1.48;;
58516;SDS011;44308;50.810;0.284;2022-07-01T08:26:47;3.85;;;1.40;;
58516;SDS011;44308;50.810;0.284;2022-07-01T08:29:13;9.25;;;1.75;;
58516;SDS011;44308;50.810;0.284;2022-07-01T08:31:39;3.75;;;1.70;;
58516;SDS011;44308;50.810;0.284;2022-07-01T08:34:05;3.25;;;1.20;;
58516;SDS011;44308;50.810;0.284;2022-07-01T08:36:32;5.55;;;1.63;;
58516;SDS011;44308;50.810;0.284;2022-07-01T08:38:57;7.22;;;1.85;;
58516;SDS011;44308;50.810;0.284;2022-07-01T08:41:23;4.47;;;2.13;;
58516;SDS011;44308;50.810;0.284;2022-07-01T08:43:49;7.35;;;2.00;;
58516;SDS011;44308;50.810;0.284;2022-07-01T08:46:15;5.75;;;1.50;;
58516;SDS011;44308;50.810;0.284;2022-07-01T08:48:41;5.80;;;1.48;;
58516;SDS011;44308;50.810;0.284;2022-07-01T08:51:08;8.00;;;1.75;;
58516;SDS011;44308;50.810;0.284;2022-07-01T08:53:37;5.57;;;1.30;;
58516;SDS011;44308;50.810;0.284;2022-07-01T08:56:03;4.32;;;1.50;;
58516;SDS011;44308;50.810;0.284;2022-07-01T08:58:50;6.43;;;1.55;;
58516;SDS011;44308;50.810;0.284;2022-07-01T09:01:24;5.55;;;1.90;;
58516;SDS011;44308;50.810;0.284;2022-07-01T09:03:54;3.28;;;1.65;;
58516;SDS011;44308;50.810;0.284;2022-07-01T09:08:49;8.13;;;2.13;;
58516;SDS011;44308;50.810;0.284;2022-07-01T09:11:17;2.78;;;1.55;;
58516;SDS011;44308;50.810;0.284;2022-07-01T09:16:43;7.70;;;2.30;;
58516;SDS011;44308;50.810;0.284;2022-07-01T09:19:11;7.80;;;2.25;;
58516;SDS011;44308;50.810;0.284;2022-07-01T09:21:37;4.45;;;2.00;;
58516;SDS011;44308;50.810;0.284;2022-07-01T09:24:04;3.75;;;1.45;;
58516;SDS011;44308;50.810;0.284;2022-07-01T09:26:51;3.67;;;1.67;;
58516;SDS011;44308;50.810;0.284;2022-07-01T09:29:25;6.82;;;2.08;;
58516;SDS011;44308;50.810;0.284;2022-07-01T09:31:57;5.68;;;1.83;;
58516;SDS011;44308;50.810;0.284;2022-07-01T09:34:24;8.63;;;1.83;;
58516;SDS011;44308;50.810;0.284;2022-07-01T09:36:54;2.67;;;1.65;;
58516;SDS011;44308;50.810;0.284;2022-07-01T09:39:21;3.03;;;1.50;;
58516;SDS011;44308;50.810;0.284;2022-07-01T09:41:47;10.52;;;1.90;;
58516;SDS011;44308;50.810;0.284;2022-07-01T09:44:13;5.75;;;2.20;;
58516;SDS011;44308;50.810;0.284;2022-07-01T09:46:50;4.00;;;1.67;;
58516;SDS011;44308;50.810;0.284;2022-07-01T09:49:20;6.30;;;2.38;;
58516;SDS011;44308;50.810;0.284;2022-07-01T09:51:46;4.60;;;2.22;;
58516;SDS011;44308;50.810;0.284;2022-07-01T09:54:16;7.20;;;2.83;;
58516;SDS011;44308;50.810;0.284;2022-07-01T09:56:43;6.80;;;2.40;;
58516;SDS011;44308;50.810;0.284;2022-07-01T09:59:09;10.20;;;2.38;;
58516;SDS011;44308;50.810;0.284;2022-07-01T10:01:35;4.00;;;1.85;;
58516;SDS011;44308;50.810;0.284;2022-07-01T10:04:02;4.78;;;2.22;;
58516;SDS011;44308;50.810;0.284;2022-07-01T10:06:42;6.88;;;1.85;;
58516;SDS011;44308;50.810;0.284;2022-07-01T10:11:51;7.88;;;2.00;;
58516;SDS011;44308;50.810;0.284;2022-07-01T10:14:17;6.90;;;1.90;;
58516;SDS011;44308;50.810;0.284;2022-07-01T10:16:45;4.47;;;2.08;;
58516;SDS011;44308;50.810;0.284;2022-07-01T10:21:45;6.35;;;1.85;;
58516;SDS011;44308;50.810;0.284;2022-07-01T10:24:12;11.90;;;2.42;;
58516;SDS011;44308;50.810;0.284;2022-07-01T10:26:40;7.68;;;2.25;;
58516;SDS011;44308;50.810;0.284;2022-07-01T10:29:25;11.73;;;2.30;;
58516;SDS011;44308;50.810;0.284;2022-07-01T10:31:58;4.80;;;2.15;;
58516;SDS011;44308;50.810;0.284;2022-07-01T10:34:36;6.65;;;2.70;;
58516;SDS011;44308;50.810;0.284;2022-07-01T10:37:08;8.98;;;2.45;;
58516;SDS011;44308;50.810;0.284;2022-07-01T10:39:54;11.68;;;2.40;;
58516;SDS011;44308;50.810;0.284;2022-07-01T10:42:29;10.05;;;2.22;;
58516;SDS011;44308;50.810;0.284;2022-07-01T10:47:35;6.40;;;2.45;;
58516;SDS011;44308;50.810;0.284;2022-07-01T10:50:06;7.97;;;1.85;;
58516;SDS011;44308;50.810;0.284;2022-07-01T10:52:36;4.85;;;2.13;;
58516;SDS011;44308;50.810;0.284;2022-07-01T10:55:04;10.93;;;2.42;;
58516;SDS011;44308;50.810;0.284;2022-07-01T10:57:36;6.18;;;2.45;;
58516;SDS011;44308;50.810;0.284;2022-07-01T11:05:00;3.35;;;1.60;;
58516;SDS011;44308;50.810;0.284;2022-07-01T11:07:30;9.38;;;2.38;;
58516;SDS011;44308;50.810;0.284;2022-07-01T11:09:58;9.23;;;2.15;;
58516;SDS011;44308;50.810;0.284;2022-07-01T11:12:26;7.57;;;2.28;;
58516;SDS011;44308;50.810;0.284;2022-07-01T11:14:54;11.00;;;2.20;;
58516;SDS011;44308;50.810;0.284;2022-07-01T11:17:21;7.88;;;2.08;;
58516;SDS011;44308;50.810;0.284;2022-07-01T11:19:50;12.05;;;1.88;;
58516;SDS011;44308;50.810;0.284;2022-07-01T11:22:18;4.25;;;1.52;;
58516;SDS011;44308;50.810;0.284;2022-07-01T11:24:45;6.82;;;1.83;;
58516;SDS011;44308;50.810;0.284;2022-07-01T11:27:11;3.67;;;1.92;;
58516;SDS011;44308;50.810;0.284;2022-07-01T11:29:37;8.38;;;2.20;;
58516;SDS011;44308;50.810;0.284;2022-07-01T11:32:03;9.27;;;2.53;;
58516;SDS011;44308;50.810;0.284;2022-07-01T11:34:29;5.15;;;1.42;;
58516;SDS011;44308;50.810;0.284;2022-07-01T11:36:56;5.85;;;1.92;;
58516;SDS011;44308;50.810;0.284;2022-07-01T11:39:41;4.90;;;1.70;;
58516;SDS011;44308;50.810;0.284;2022-07-01T11:42:08;6.18;;;2.00;;
58516;SDS011;44308;50.810;0.284;2022-07-01T11:44:35;8.55;;;2.25;;
58516;SDS011;44308;50.810;0.284;2022-07-01T11:47:03;5.95;;;1.95;;
58516;SDS011;44308;50.810;0.284;2022-07-01T11:49:30;7.78;;;2.30;;
58516;SDS011;44308;50.810;0.284;2022-07-01T11:54:23;9.93;;;3.08;;
58516;SDS011;44308;50.810;0.284;2022-07-01T11:56:49;6.45;;;2.70;;
58516;SDS011;44308;50.810;0.284;2022-07-01T11:59:15;6.50;;;2.08;;
58516;SDS011;44308;50.810;0.284;2022-07-01T12:01:41;12.43;;;2.13;;
58516;SDS011;44308;50.810;0.284;2022-07-01T12:04:09;7.30;;;2.25;;
58516;SDS011;44308;50.810;0.284;2022-07-01T12:06:35;10.75;;;2.63;;
58516;SDS011;44308;50.810;0.284;2022-07-01T12:09:04;5.47;;;2.13;;
58516;SDS011;44308;50.810;0.284;2022-07-01T12:11:30;8.65;;;2.10;;
58516;SDS011;44308;50.810;0.284;2022-07-01T12:13:56;10.93;;;2.50;;
58516;SDS011;44308;50.810;0.284;2022-07-01T12:16:22;9.77;;;2.30;;
58516;SDS011;44308;50.810;0.284;2022-07-01T12:18:59;10.27;;;2.60;;
58516;SDS011;44308;50.810;0.284;2022-07-01T12:21:26;8.75;;;2.70;;
58516;SDS011;44308;50.810;0.284;2022-07-01T12:24:02;5.53;;;2.00;;
58516;SDS011;44308;50.810;0.284;2022-07-01T12:26:33;8.55;;;2.22;;
58516;SDS011;44308;50.810;0.284;2022-07-01T12:28:59;10.43;;;2.10;;
58516;SDS011;44308;50.810;0.284;2022-07-01T12:31:25;9.25;;;2.75;;
58516;SDS011;44308;50.810;0.284;2022-07-01T12:33:51;15.93;;;3.10;;
58516;SDS011;44308;50.810;0.284;2022-07-01T12:36:17;6.50;;;3.35;;
58516;SDS011;44308;50.810;0.284;2022-07-01T12:38:43;7.30;;;2.80;;
58516;SDS011;44308;50.810;0.284;2022-07-01T12:41:28;8.85;;;3.75;;
58516;SDS011;44308;50.810;0.284;2022-07-01T12:43:55;12.98;;;3.63;;
58516;SDS011;44308;50.810;0.284;2022-07-01T12:46:28;6.13;;;2.50;;
58516;SDS011;44308;50.810;0.284;2022-07-01T12:48:55;4.47;;;2.17;;
58516;SDS011;44308;50.810;0.284;2022-07-01T12:51:27;2.92;;;1.42;;
58516;SDS011;44308;50.810;0.284;2022-07-01T12:53:54;5.78;;;2.47;;
58516;SDS011;44308;50.810;0.284;2022-07-01T12:56:23;5.18;;;1.70;;
58516;SDS011;44308;50.810;0.284;2022-07-01T12:58:51;11.10;;;2.38;;
58516;SDS011;44308;50.810;0.284;2022-07-01T13:01:18;3.15;;;1.55;;
58516;SDS011;44308;50.810;0.284;2022-07-01T13:03:44;5.45;;;1.77;;
58516;SDS011;44308;50.810;0.284;2022-07-01T13:06:10;6.60;;;1.60;;
58516;SDS011;44308;50.810;0.284;2022-07-01T13:08:37;3.00;;;1.38;;
58516;SDS011;44308;50.810;0.284;2022-07-01T13:11:03;4.80;;;1.60;;
58516;SDS011;44308;50.810;0.284;2022-07-01T13:13:31;3.22;;;1.50;;
58516;SDS011;44308;50.810;0.284;2022-07-01T13:15:57;5.18;;;1.73;;
58516;SDS011;44308;50.810;0.284;2022-07-01T13:18:23;3.35;;;1.25;;
58516;SDS011;44308;50.810;0.284;2022-07-01T13:20:49;7.97;;;2.00;;
58516;SDS011;44308;50.810;0.284;2022-07-01T13:23:15;7.82;;;2.15;;
58516;SDS011;44308;50.810;0.284;2022-07-01T13:25:41;7.10;;;2.00;;
58516;SDS011;44308;50.810;0.284;2022-07-01T13:28:07;10.20;;;1.70;;
58516;SDS011;44308;50.810;0.284;2022-07-01T13:30:33;2.55;;;1.38;;
58516;SDS011;44308;50.810;0.284;2022-07-01T13:33:00;7.03;;;2.30;;
58516;SDS011;44308;50.810;0.284;2022-07-01T13:35:26;5.60;;;1.73;;
58516;SDS011;44308;50.810;0.284;2022-07-01T13:37:52;4.68;;;1.77;;
58516;SDS011;44308;50.810;0.284;2022-07-01T13:40:18;10.77;;;2.17;;
58516;SDS011;44308;50.810;0.284;2022-07-01T13:42:46;10.45;;;1.70;;
58516;SDS011;44308;50.810;0.284;2022-07-01T13:45:18;6.18;;;1.63;;
58516;SDS011;44308;50.810;0.284;2022-07-01T13:47:44;5.35;;;1.63;;
58516;SDS011;44308;50.810;0.284;2022-07-01T13:50:10;3.75;;;1.40;;
58516;SDS011;44308;50.810;0.284;2022-07-01T13:52:36;5.05;;;1.95;;
58516;SDS011;44308;50.810;0.284;2022-07-01T13:55:02;4.32;;;1.48;;
58516;SDS011;44308;50.810;0.284;2022-07-01T13:57:27;8.70;;;1.50;;
58516;SDS011;44308;50.810;0.284;2022-07-01T13:59:53;7.88;;;2.38;;
58516;SDS011;44308;50.810;0.284;2022-07-01T14:02:19;4.30;;;1.58;;
58516;SDS011;44308;50.810;0.284;2022-07-01T14:04:46;6.72;;;2.00;;
58516;SDS011;44308;50.810;0.284;2022-07-01T14:07:12;6.47;;;1.92;;
58516;SDS011;44308;50.810;0.284;2022-07-01T14:09:38;4.70;;;1.50;;
58516;SDS011;44308;50.810;0.284;2022-07-01T14:12:05;8.73;;;1.60;;
58516;SDS011;44308;50.810;0.284;2022-07-01T14:14:32;3.03;;;1.42;;
58516;SDS011;44308;50.810;0.284;2022-07-01T14:16:57;5.88;;;2.50;;
58516;SDS011;44308;50.810;0.284;2022-07-01T14:19:23;6.13;;;1.83;;
58516;SDS011;44308;50.810;0.284;2022-07-01T14:21:49;9.27;;;2.65;;
58516;SDS011;44308;50.810;0.284;2022-07-01T14:24:14;6.18;;;2.25;;
58516;SDS011;44308;50.810;0.284;2022-07-01T14:26:40;9.68;;;2.95;;
58516;SDS011;44308;50.810;0.284;2022-07-01T14:29:06;17.25;;;2.35;;
58516;SDS011;44308;50.810;0.284;2022-07-01T14:31:32;8.88;;;2.28;;
58516;SDS011;44308;50.810;0.284;2022-07-01T14:33:58;6.78;;;2.10;;
58516;SDS011;44308;50.810;0.284;2022-07-01T14:36:23;9.25;;;2.17;;
58516;SDS011;44308;50.810;0.284;2022-07-01T14:38:49;5.95;;;2.28;;
58516;SDS011;44308;50.810;0.284;2022-07-01T14:41:15;6.18;;;2.10;;
58516;SDS011;44308;50.810;0.284;2022-07-01T14:43:41;6.93;;;2.00;;
58516;SDS011;44308;50.810;0.284;2022-07-01T14:46:06;8.95;;;2.55;;
58516;SDS011;44308;50.810;0.284;2022-07-01T14:48:35;7.93;;;2.67;;
58516;SDS011;44308;50.810;0.284;2022-07-01T14:51:03;7.47;;;2.10;;
58516;SDS011;44308;50.810;0.284;2022-07-01T14:53:30;7.75;;;2.13;;
58516;SDS011;44308;50.810;0.284;2022-07-01T14:55:56;8.15;;;2.13;;
58516;SDS011;44308;50.810;0.284;2022-07-01T14:58:21;13.73;;;2.22;;
58516;SDS011;44308;50.810;0.284;2022-07-01T15:00:47;5.82;;;2.05;;
58516;SDS011;44308;50.810;0.284;2022-07-01T15:03:13;9.02;;;2.65;;
58516;SDS011;44308;50.810;0.284;2022-07-01T15:05:38;8.95;;;2.38;;
58516;SDS011;44308;50.810;0.284;2022-07-01T15:08:04;6.88;;;2.30;;